Hauptseite
METAR-TAF:

METAR-TAF

Flughäfen :

Mönchengladbach, Deutschland

Verkehrslandeplatz Mönchengladbach

Breite: 51-13-49N, Länge: 006-30-16E, Höhe: 38 m

Beobachtung

Neuester Wetterbericht von vor 12 Stunden und 1 Minuten, um 17:50 UTC
Wind 5 kt aus West/Nordwest, variierte zwischen West und Nordwest
Temperatur 14°C
Luftfeuchtigkeit 58%
Luftdruck 1012 hPa
Sichtweite 10 km oder mehr
Aufgelockert bewölkt in der Höhe von 4000 ft, Towering cumulus.
Schauer in der Nähe

METAR: EDLN 251750Z 30005KT 260V320 9999 VCSH SCT040TCU 14/06 Q1012

Zeit: 07:51 (05:51 UTC)

Prognose

Neuester Wetterbericht von vor 12 Stunden und 51 Minuten, um 17:00 UTC
Gültige Prognose vom 25 um 18 UTC bis 26 um 03 UTC
Wind 8 kt aus West/Südwest
Sichtweite 10 km oder mehr
Aufgelockert bewölkt in der Höhe von 4000 ft

TAF: EDLN 251700Z 2518/2603 25008KT 9999 SCT040

Wetterbeobachtungen und Prognosen von mehr als 4000 Flughäfen (METAR und TAF Bericht).

Die verfügbaren Stationen werden durch gelbe und rote Markierungen auf der Karte dargestellt.

Führen Sie die Maus auf sie, um den Namen der Station zu sehen.

Darauf klicken, um die Beobachtung von Wetterbeobachtungen und Prognosen zu sehen.

Um die Karte zu ändern : klicken Sie auf den grünen Tasten mit einem schwarzen Kreuz Zum Vergrößern, auf den grünen Button mit einem Gedankenstrich zu verkleinern, oder auf die grünen Pfeile für benachbarte Karten.


METAR-TAF: